TimeEST,TemperatureF,Dew PointF,Humidity,Sea Level PressureIn,VisibilityMPH,Wind Direction,Wind SpeedMPH,Gust SpeedMPH,PrecipitationIn,Events,Conditions,WindDirDegrees,DateUTC
12:15 AM,51.8,32.0,47,30.07,10.0,WNW,10.4,-,0.00,,Clear,290,2013-01-22 05:15:00
12:35 AM,53.6,32.0,44,30.07,10.0,West,12.7,-,0.00,,Clear,280,2013-01-22 05:35:00
1:15 AM,51.8,32.0,47,30.07,10.0,West,6.9,-,0.00,,Clear,270,2013-01-22 06:15:00
1:55 AM,48.2,32.0,54,30.07,10.0,West,9.2,-,0.00,,Clear,280,2013-01-22 06:55:00
2:15 AM,48.2,30.2,50,30.07,10.0,West,5.8,-,0.00,,Clear,270,2013-01-22 07:15:00
2:35 AM,48.2,30.2,50,30.08,10.0,West,6.9,-,0.00,,Clear,280,2013-01-22 07:35:00
2:55 AM,46.4,28.4,50,30.08,10.0,West,8.1,-,0.00,,Clear,280,2013-01-22 07:55:00
3:15 AM,46.4,28.4,50,30.09,10.0,West,10.4,-,0.00,,Clear,280,2013-01-22 08:15:00
3:35 AM,46.4,26.6,46,30.09,10.0,West,10.4,16.1,0.00,,Clear,280,2013-01-22 08:35:00
3:55 AM,46.4,26.6,46,30.09,10.0,West,9.2,-,0.00,,Clear,280,2013-01-22 08:55:00
4:15 AM,44.6,28.4,53,30.09,10.0,West,8.1,-,0.00,,Clear,280,2013-01-22 09:15:00
4:35 AM,44.6,26.6,49,30.10,10.0,West,10.4,-,0.00,,Clear,280,2013-01-22 09:35:00
4:55 AM,44.6,26.6,49,30.11,10.0,West,9.2,-,0.00,,Clear,280,2013-01-22 09:55:00
5:15 AM,44.6,26.6,49,30.11,10.0,West,8.1,-,0.00,,Clear,280,2013-01-22 10:15:00
5:35 AM,44.6,26.6,49,30.11,10.0,West,8.1,-,0.00,,Clear,270,2013-01-22 10:35:00
5:55 AM,42.8,26.6,53,30.12,10.0,West,8.1,-,0.00,,Clear,280,2013-01-22 10:55:00
6:15 AM,42.8,26.6,53,30.13,10.0,West,8.1,-,0.00,,Clear,280,2013-01-22 11:15:00
6:35 AM,42.8,24.8,49,30.14,10.0,West,5.8,-,0.00,,Clear,280,2013-01-22 11:35:00
6:55 AM,42.8,24.8,49,30.15,10.0,West,10.4,-,0.00,,Clear,280,2013-01-22 11:55:00
7:15 AM,42.8,23.0,46,30.16,10.0,West,10.4,-,0.00,,Clear,280,2013-01-22 12:15:00
7:35 AM,42.8,24.8,49,30.17,10.0,West,8.1,-,0.00,,Clear,270,2013-01-22 12:35:00
7:55 AM,42.8,23.0,46,30.18,10.0,WNW,9.2,-,0.00,,Clear,290,2013-01-22 12:55:00
8:15 AM,42.8,24.8,49,30.18,10.0,West,6.9,-,0.00,,Clear,280,2013-01-22 13:15:00
8:35 AM,42.8,23.0,46,30.20,10.0,WNW,8.1,-,0.00,,Clear,300,2013-01-22 13:35:00
8:55 AM,44.6,23.0,43,30.21,10.0,NW,9.2,16.1,0.00,,Clear,310,2013-01-22 13:55:00
9:15 AM,44.6,23.0,43,30.22,10.0,NW,12.7,-,0.00,,Clear,310,2013-01-22 14:15:00
9:35 AM,46.4,21.2,37,30.22,10.0,WNW,12.7,16.1,0.00,,Clear,300,2013-01-22 14:35:00
9:55 AM,46.4,21.2,37,30.22,10.0,WNW,10.4,-,0.00,,Clear,300,2013-01-22 14:55:00
10:15 AM,48.2,21.2,34,30.23,10.0,NW,9.2,-,0.00,,Clear,320,2013-01-22 15:15:00
10:35 AM,50.0,21.2,32,30.23,10.0,NW,11.5,-,0.00,,Clear,320,2013-01-22 15:35:00
10:55 AM,50.0,21.2,32,30.23,10.0,WNW,9.2,-,0.00,,Clear,300,2013-01-22 15:55:00
11:15 AM,51.8,21.2,30,30.22,10.0,NNW,10.4,-,0.00,,Clear,330,2013-01-22 16:15:00
11:55 AM,53.6,21.2,28,30.21,10.0,NNW,9.2,-,0.00,,Clear,330,2013-01-22 16:55:00
12:15 PM,53.6,21.2,28,30.20,10.0,NW,8.1,-,0.00,,Clear,320,2013-01-22 17:15:00
12:35 PM,55.4,21.2,26,30.19,10.0,WNW,3.5,-,0.00,,Clear,300,2013-01-22 17:35:00
12:55 PM,55.4,23.0,29,30.19,10.0,West,4.6,-,0.00,,Clear,270,2013-01-22 17:55:00
1:15 PM,55.4,23.0,29,30.18,10.0,NNW,10.4,-,0.00,,Clear,330,2013-01-22 18:15:00
1:55 PM,57.2,21.2,25,30.17,10.0,WNW,9.2,-,0.00,,Clear,290,2013-01-22 18:55:00
2:15 PM,57.2,23.0,27,30.17,10.0,West,9.2,-,0.00,,Clear,280,2013-01-22 19:15:00
2:35 PM,57.2,23.0,27,30.17,10.0,NNW,9.2,-,0.00,,Clear,330,2013-01-22 19:35:00
3:15 PM,57.2,23.0,27,30.17,10.0,West,13.8,-,0.00,,Clear,270,2013-01-22 20:15:00
3:35 PM,57.2,23.0,27,30.16,10.0,West,9.2,-,0.00,,Clear,280,2013-01-22 20:35:00
3:55 PM,57.2,23.0,27,30.18,10.0,WNW,12.7,-,0.00,,Clear,300,2013-01-22 20:55:00
4:15 PM,57.2,23.0,27,30.19,10.0,WNW,12.7,-,0.00,,Clear,290,2013-01-22 21:15:00
4:35 PM,55.4,23.0,29,30.19,10.0,West,12.7,-,0.00,,Clear,280,2013-01-22 21:35:00
4:55 PM,55.4,23.0,29,30.19,10.0,WNW,10.4,19.6,0.00,,Clear,300,2013-01-22 21:55:00
5:15 PM,55.4,23.0,29,30.20,10.0,NW,9.2,-,0.00,,Clear,310,2013-01-22 22:15:00
5:35 PM,53.6,23.0,30,30.20,10.0,Calm,Calm,-,0.00,,Clear,0,2013-01-22 22:35:00
5:55 PM,51.8,23.0,33,30.21,10.0,Calm,Calm,-,0.00,,Clear,0,2013-01-22 22:55:00
6:15 PM,50.0,24.8,37,30.22,10.0,Calm,Calm,-,0.00,,Clear,0,2013-01-22 23:15:00
6:35 PM,46.4,28.4,50,30.23,10.0,Calm,Calm,-,0.00,,Clear,0,2013-01-22 23:35:00
6:55 PM,44.6,28.4,53,30.24,10.0,Calm,Calm,-,0.00,,Clear,0,2013-01-22 23:55:00
7:15 PM,48.2,26.6,43,30.23,10.0,Calm,Calm,-,0.00,,Clear,0,2013-01-23 00:15:00
7:35 PM,44.6,28.4,53,30.24,10.0,Calm,Calm,-,0.00,,Clear,0,2013-01-23 00:35:00
7:55 PM,42.8,30.2,61,30.24,10.0,Calm,Calm,-,0.00,,Clear,0,2013-01-23 00:55:00
8:15 PM,42.8,30.2,61,30.25,10.0,Calm,Calm,-,0.00,,Clear,0,2013-01-23 01:15:00
8:35 PM,39.2,28.4,65,30.25,10.0,Calm,Calm,-,0.00,,Clear,0,2013-01-23 01:35:00
8:55 PM,42.8,28.4,57,30.25,10.0,Calm,Calm,-,0.00,,Clear,0,2013-01-23 01:55:00
9:15 PM,39.2,28.4,65,30.26,10.0,Calm,Calm,-,0.00,,Clear,0,2013-01-23 02:15:00
9:35 PM,39.2,28.4,65,30.26,10.0,Calm,Calm,-,0.00,,Clear,0,2013-01-23 02:35:00
9:55 PM,39.2,28.4,65,30.26,10.0,West,3.5,-,0.00,,Clear,270,2013-01-23 02:55:00
10:15 PM,37.4,28.4,70,30.27,10.0,Calm,Calm,-,0.00,,Clear,0,2013-01-23 03:15:00
10:35 PM,37.4,26.6,65,30.27,10.0,Calm,Calm,-,0.00,,Clear,0,2013-01-23 03:35:00
10:55 PM,37.4,26.6,65,30.28,10.0,Calm,Calm,-,0.00,,Clear,0,2013-01-23 03:55:00
11:15 PM,37.4,26.6,65,30.29,10.0,Calm,Calm,-,0.00,,Clear,0,2013-01-23 04:15:00
11:35 PM,37.4,26.6,65,30.29,10.0,Calm,Calm,-,0.00,,Clear,0,2013-01-23 04:35:00
11:55 PM,37.4,26.6,65,30.29,10.0,Calm,Calm,-,0.00,,Clear,0,2013-01-23 04:55:00